Time;durP1;ratioP1;P1;durP2;ratioP2;P2;SDS_P1;SDS_P2;PMS_P1;PMS_P2;Temp;Humidity;BMP_temperature;BMP_pressure;BME280_temperature;BME280_humidity;BME280_pressure;Samples;Min_cycle;Max_cycle;Signal;HPM_P1;HPM_P2
2023/11/23 00:01:21;;;;;;;12.35;4.63;;;;;;;10.24;100.00;102452.31;6083128;19;20029;-74
2023/11/23 00:03:28;;;;;;;12.55;4.50;;;;;;;10.26;100.00;102458.44;6084945;19;20021;-74
2023/11/23 00:05:40;;;;;;;11.60;4.53;;;;;;;10.22;100.00;102456.75;6084342;19;20394;-73
2023/11/23 00:07:50;;;;;;;10.85;4.80;;;;;;;10.21;100.00;102460.25;6085415;19;20028;-75
2023/11/23 00:10:00;;;;;;;8.95;3.90;;;;;;;10.24;100.00;102458.47;6087513;19;20017;-75
2023/11/23 00:12:10;;;;;;;14.63;5.15;;;;;;;10.22;100.00;102451.50;6087007;19;20034;-74
2023/11/23 00:14:20;;;;;;;17.52;6.40;;;;;;;10.22;100.00;102446.25;6087339;19;20037;-74
2023/11/23 00:16:30;;;;;;;15.45;5.65;;;;;;;10.22;100.00;102441.84;6087590;19;20055;-75
2023/11/23 00:18:40;;;;;;;10.48;5.10;;;;;;;10.25;100.00;102441.81;6088182;19;20038;-75
2023/11/23 00:20:53;;;;;;;11.07;5.95;;;;;;;10.23;100.00;102437.47;6086503;19;20021;-74
2023/11/23 00:23:05;;;;;;;14.15;5.05;;;;;;;10.23;100.00;102434.84;6088329;19;20009;-75
2023/11/23 00:25:16;;;;;;;22.70;5.72;;;;;;;10.26;100.00;102426.91;6086799;19;20021;-74
2023/11/23 00:27:26;;;;;;;16.48;5.97;;;;;;;10.24;100.00;102424.31;6087030;19;20016;-75
2023/11/23 00:29:36;;;;;;;9.93;5.18;;;;;;;10.26;100.00;102433.03;6085354;19;20130;-74
2023/11/23 00:31:39;;;;;;;17.10;5.43;;;;;;;10.25;100.00;102431.31;6086035;19;20030;-75
2023/11/23 00:33:44;;;;;;;12.20;4.78;;;;;;;10.32;100.00;102418.97;6087389;19;20014;-75
2023/11/23 00:35:49;;;;;;;8.98;5.10;;;;;;;10.29;100.00;102421.63;6086349;19;20003;-73
2023/11/23 00:37:56;;;;;;;11.27;5.00;;;;;;;10.36;100.00;102417.19;6084836;19;20078;-75
2023/11/23 00:40:02;;;;;;;16.67;5.47;;;;;;;10.37;100.00;102430.28;6085910;19;20443;-75
2023/11/23 00:42:12;;;;;;;12.00;4.60;;;;;;;10.40;100.00;102418.84;6084693;19;20026;-75
2023/11/23 00:44:17;;;;;;;14.95;4.78;;;;;;;10.35;100.00;102418.94;6085666;19;20002;-75
2023/11/23 00:46:28;;;;;;;19.77;5.18;;;;;;;10.39;100.00;102418.00;6086480;19;20017;-74
2023/11/23 00:48:38;;;;;;;16.52;5.35;;;;;;;10.35;100.00;102423.31;6085305;19;20479;-74
2023/11/23 00:50:48;;;;;;;14.10;4.40;;;;;;;10.37;100.00;102416.28;6084739;19;20013;-74
2023/11/23 00:53:04;;;;;;;12.00;4.53;;;;;;;10.37;100.00;102411.88;6082818;19;20463;-75
2023/11/23 00:55:16;;;;;;;17.50;5.07;;;;;;;10.43;100.00;102421.47;6084538;19;20021;-75
2023/11/23 00:57:26;;;;;;;8.32;4.28;;;;;;;10.38;100.00;102411.00;6083486;19;20411;-76
2023/11/23 00:59:36;;;;;;;14.77;4.75;;;;;;;10.41;100.00;102404.84;6084778;19;20031;-75
2023/11/23 01:01:46;;;;;;;14.43;4.78;;;;;;;10.37;100.00;102403.13;6082188;19;20033;-76
2023/11/23 01:03:56;;;;;;;12.98;3.92;;;;;;;10.35;100.00;102405.81;6083397;19;20018;-75
2023/11/23 01:06:07;;;;;;;17.77;4.65;;;;;;;10.33;100.00;102410.22;6078245;19;20049;-71
2023/11/23 01:08:19;;;;;;;8.82;3.55;;;;;;;10.32;100.00;102411.06;6083342;19;20099;-73
2023/11/23 01:10:30;;;;;;;11.88;3.80;;;;;;;10.24;100.00;102408.56;6083218;19;20025;-71
2023/11/23 01:12:41;;;;;;;10.60;4.15;;;;;;;10.21;100.00;102391.94;6080758;19;20017;-71
2023/11/23 01:14:51;;;;;;;10.30;4.30;;;;;;;10.20;100.00;102400.72;6085013;19;20014;-71
2023/11/23 01:16:56;;;;;;;12.57;4.88;;;;;;;10.21;100.00;102405.09;6083072;19;20017;-71
2023/11/23 01:19:01;;;;;;;11.32;5.20;;;;;;;10.23;100.00;102400.69;6082354;19;20501;-70
2023/11/23 01:21:11;;;;;;;10.13;4.68;;;;;;;10.17;100.00;102395.53;6083877;19;20350;-71
2023/11/23 01:23:24;;;;;;;11.68;4.72;;;;;;;10.08;100.00;102401.75;6078550;19;20041;-71
2023/11/23 01:25:29;;;;;;;9.48;3.70;;;;;;;10.01;100.00;102395.72;6082069;19;20011;-71
2023/11/23 01:27:40;;;;;;;10.75;4.05;;;;;;;10.04;100.00;102397.44;6082303;19;20779;-71
2023/11/23 01:29:45;;;;;;;12.70;4.85;;;;;;;10.01;100.00;102386.97;6079292;19;20010;-71
2023/11/23 01:31:50;;;;;;;14.40;4.10;;;;;;;9.96;100.00;102396.69;6083494;19;20576;-71
2023/11/23 01:33:55;;;;;;;12.32;3.88;;;;;;;9.92;100.00;102394.97;6083587;19;20027;-71
2023/11/23 01:36:00;;;;;;;9.35;3.83;;;;;;;9.87;100.00;102390.66;6080760;19;20011;-71
2023/11/23 01:38:06;;;;;;;12.63;4.15;;;;;;;9.76;100.00;102395.16;6084220;19;20800;-72
2023/11/23 01:40:15;;;;;;;10.68;4.43;;;;;;;9.70;100.00;102387.38;6078826;19;20023;-71
2023/11/23 01:42:20;;;;;;;11.23;3.85;;;;;;;9.60;100.00;102394.47;6082420;19;20097;-71
2023/11/23 01:44:24;;;;;;;12.52;4.40;;;;;;;9.65;100.00;102389.16;6080180;19;20010;-75
2023/11/23 01:46:29;;;;;;;9.70;3.78;;;;;;;9.58;100.00;102380.47;6082886;19;20014;-71
2023/11/23 01:48:35;;;;;;;13.73;4.35;;;;;;;9.55;100.00;102396.28;6081489;19;20010;-72
2023/11/23 01:50:42;;;;;;;15.07;3.90;;;;;;;9.50;100.00;102387.56;6081635;19;20464;-72
2023/11/23 01:52:47;;;;;;;11.98;4.32;;;;;;;9.50;100.00;102397.22;6080333;19;20007;-72
2023/11/23 01:54:52;;;;;;;14.65;4.78;;;;;;;9.45;100.00;102397.25;6078100;19;20038;-74
2023/11/23 01:57:00;;;;;;;11.98;3.92;;;;;;;9.34;100.00;102396.50;6081651;19;20014;-76
2023/11/23 01:59:09;;;;;;;10.40;3.65;;;;;;;9.37;100.00;102401.72;6080772;19;20030;-75
2023/11/23 02:01:19;;;;;;;11.55;4.05;;;;;;;9.48;100.00;102402.50;6083701;19;20045;-75
2023/11/23 02:03:25;;;;;;;15.77;4.82;;;;;;;9.50;100.00;102398.06;6081121;19;19999;-76
2023/11/23 02:05:35;;;;;;;8.25;3.25;;;;;;;9.63;100.00;102401.44;6084174;19;20038;-75
2023/11/23 02:07:45;;;;;;;11.18;3.60;;;;;;;9.57;100.00;102405.00;6083995;19;20042;-75
2023/11/23 02:09:55;;;;;;;9.52;3.67;;;;;;;9.57;100.00;102396.25;6081317;19;20018;-75
2023/11/23 02:12:09;;;;;;;13.48;3.70;;;;;;;9.55;100.00;102401.53;6080245;19;20016;-75
2023/11/23 02:14:19;;;;;;;10.35;4.07;;;;;;;9.54;100.00;102409.44;6077350;19;20095;-74
2023/11/23 02:16:29;;;;;;;10.27;4.13;;;;;;;9.43;100.00;102401.69;6083088;19;20397;-75
2023/11/23 02:18:40;;;;;;;11.40;3.97;;;;;;;9.48;100.00;102407.75;6083967;19;20037;-75
2023/11/23 02:20:50;;;;;;;11.82;3.97;;;;;;;9.41;100.00;102404.31;6085043;19;20029;-75
2023/11/23 02:22:59;;;;;;;7.25;2.97;;;;;;;9.42;100.00;102407.78;6085834;19;20079;-75
2023/11/23 02:25:12;;;;;;;18.40;4.18;;;;;;;9.40;100.00;102405.19;6090057;19;20594;-75
2023/11/23 02:27:22;;;;;;;12.88;3.35;;;;;;;9.42;100.00;102400.78;6089235;19;20078;-75
2023/11/23 02:29:35;;;;;;;13.40;3.65;;;;;;;9.42;100.00;102394.66;6088670;19;20021;-75
2023/11/23 02:31:45;;;;;;;14.23;4.95;;;;;;;9.36;100.00;102392.97;6087710;19;20025;-75
2023/11/23 02:33:57;;;;;;;14.20;4.18;;;;;;;9.37;100.00;102385.97;6079833;19;20017;-75
2023/11/23 02:36:12;;;;;;;7.60;3.63;;;;;;;9.39;100.00;102389.47;6086842;19;20017;-75
2023/11/23 02:38:14;;;;;;;9.25;3.58;;;;;;;9.38;100.00;102387.75;6085594;19;20091;-75
2023/11/23 02:40:22;;;;;;;11.38;3.58;;;;;;;9.53;100.00;102395.44;6082790;19;20009;-75
2023/11/23 02:42:32;;;;;;;8.15;3.33;;;;;;;9.54;100.00;102393.69;6089728;19;20021;-75
2023/11/23 02:44:42;;;;;;;7.57;3.90;;;;;;;9.47;100.00;102386.75;6087089;19;20815;-75
2023/11/23 02:46:52;;;;;;;14.40;4.10;;;;;;;9.46;100.00;102388.53;6087882;19;20017;-71
2023/11/23 02:48:57;;;;;;;11.40;4.18;;;;;;;9.48;100.00;102391.09;6087333;19;20070;-75
2023/11/23 02:51:02;;;;;;;8.85;3.38;;;;;;;9.57;100.00;102396.25;6084460;19;20065;-75
2023/11/23 02:53:16;;;;;;;14.88;4.82;;;;;;;9.50;100.00;102391.97;6085233;19;20010;-75
2023/11/23 02:55:24;;;;;;;9.57;3.70;;;;;;;9.48;100.00;102385.84;6086381;19;20010;-74
2023/11/23 02:57:26;;;;;;;14.32;3.50;;;;;;;9.52;100.00;102390.19;6088047;19;20416;-76
2023/11/23 02:59:31;;;;;;;14.48;4.55;;;;;;;9.57;100.00;102388.41;6087066;19;20003;-74
2023/11/23 03:01:36;;;;;;;11.52;4.03;;;;;;;9.57;100.00;102385.78;6087950;19;20013;-75
2023/11/23 03:03:39;;;;;;;13.38;4.68;;;;;;;9.54;100.00;102383.19;6085174;19;20066;-77
2023/11/23 03:05:49;;;;;;;23.95;4.90;;;;;;;9.52;100.00;102388.44;6087253;19;20351;-74
2023/11/23 03:07:54;;;;;;;9.20;3.28;;;;;;;9.51;100.00;102384.09;6087554;19;20011;-75
2023/11/23 03:10:01;;;;;;;8.45;3.10;;;;;;;9.50;100.00;102392.81;6087273;19;20212;-76
2023/11/23 03:12:09;;;;;;;10.60;3.30;;;;;;;9.48;100.00;102397.25;6085607;19;20010;-74
2023/11/23 03:14:17;;;;;;;11.93;4.18;;;;;;;9.48;100.00;102392.00;6086947;19;20011;-75
2023/11/23 03:16:27;;;;;;;10.38;4.25;;;;;;;9.47;100.00;102392.00;6085830;19;20018;-74
2023/11/23 03:18:39;;;;;;;8.82;3.05;;;;;;;9.40;100.00;102392.09;6084271;19;20025;-75
2023/11/23 03:20:49;;;;;;;8.40;3.28;;;;;;;9.44;100.00;102391.16;6086088;19;20023;-71
2023/11/23 03:22:59;;;;;;;15.15;4.25;;;;;;;9.45;100.00;102385.03;6087530;19;20479;-72
2023/11/23 03:25:10;;;;;;;18.85;3.80;;;;;;;9.42;100.00;102387.66;6087617;19;20081;-71
2023/11/23 03:27:22;;;;;;;10.93;3.60;;;;;;;9.42;100.00;102390.28;6085190;19;20493;-71
2023/11/23 03:29:33;;;;;;;17.63;4.45;;;;;;;9.49;100.00;102385.84;6086086;19;20067;-71
2023/11/23 03:31:43;;;;;;;8.45;3.63;;;;;;;9.49;100.00;102385.84;6086150;19;20017;-72
2023/11/23 03:33:50;;;;;;;10.30;3.63;;;;;;;9.46;100.00;102380.66;6084471;19;20026;-70
2023/11/23 03:36:00;;;;;;;10.20;3.53;;;;;;;9.46;100.00;102380.66;6080990;19;20025;-72
2023/11/23 03:38:10;;;;;;;22.80;4.20;;;;;;;9.49;100.00;102379.75;6086064;19;20021;-72
2023/11/23 03:40:15;;;;;;;11.55;4.43;;;;;;;9.51;100.00;102378.84;6084515;19;20011;-71
2023/11/23 03:42:23;;;;;;;10.00;3.53;;;;;;;9.54;100.00;102373.56;6085171;19;20018;-72
2023/11/23 03:44:29;;;;;;;8.52;3.28;;;;;;;9.58;100.00;102369.13;6083582;19;20734;-72
2023/11/23 03:46:37;;;;;;;13.10;4.10;;;;;;;9.52;100.00;102367.44;6083480;19;20018;-71
2023/11/23 03:48:42;;;;;;;10.55;4.57;;;;;;;9.48;100.00;102372.72;6086854;19;20010;-72
2023/11/23 03:50:56;;;;;;;12.48;4.45;;;;;;;9.42;100.00;102377.16;6084262;19;20109;-72
2023/11/23 03:53:17;;;;;;;11.00;3.65;;;;;;;9.36;100.00;102372.00;6083522;19;20013;-76
2023/11/23 04:13:08;;;;;;;17.77;4.25;;;;;;;9.11;100.00;102368.78;6086166;19;20006;-76
2023/11/23 04:15:17;;;;;;;12.73;4.80;;;;;;;9.13;100.00;102366.97;6086498;19;20006;-74
2023/11/23 04:17:22;;;;;;;24.95;4.60;;;;;;;9.11;100.00;102366.16;6088711;19;20118;-74
2023/11/23 04:19:32;;;;;;;16.60;4.07;;;;;;;9.09;100.00;102365.28;6087691;19;20037;-73
2023/11/23 04:21:34;;;;;;;14.00;4.57;;;;;;;9.10;100.00;102371.41;6086781;19;20701;-76
2023/11/23 04:23:40;;;;;;;13.93;4.05;;;;;;;9.07;100.00;102374.06;6084654;19;20363;-76
2023/11/23 04:25:50;;;;;;;8.98;3.75;;;;;;;9.11;100.00;102378.38;6084991;19;20035;-75
2023/11/23 04:27:55;;;;;;;11.80;4.18;;;;;;;9.12;100.00;102375.75;6079864;19;20010;-76
2023/11/23 04:30:04;;;;;;;8.77;3.70;;;;;;;9.10;100.00;102376.66;6083688;19;20037;-73
2023/11/23 04:32:14;;;;;;;20.33;4.47;;;;;;;9.10;100.00;102374.88;6086745;19;20016;-74
2023/11/23 04:34:24;;;;;;;15.90;5.00;;;;;;;9.15;100.00;102367.84;6081980;19;20025;-76
2023/11/23 04:36:29;;;;;;;8.90;3.50;;;;;;;9.19;100.00;102377.44;6085818;19;20432;-76
2023/11/23 04:38:34;;;;;;;11.82;4.20;;;;;;;9.20;100.00;102376.53;6087506;19;20037;-74
2023/11/23 04:40:39;;;;;;;9.43;3.95;;;;;;;9.14;100.00;102376.59;6087087;19;20371;-74
2023/11/23 04:42:49;;;;;;;11.70;4.10;;;;;;;9.18;100.00;102378.28;6083712;19;20378;-72
2023/11/23 04:44:59;;;;;;;10.85;3.15;;;;;;;9.19;100.00;102379.19;6084713;19;20428;-74
2023/11/23 04:47:12;;;;;;;9.68;3.70;;;;;;;9.16;100.00;102377.47;6082655;19;20419;-74
2023/11/23 04:49:22;;;;;;;8.40;3.55;;;;;;;9.21;100.00;102374.78;6085358;19;20018;-74
2023/11/23 04:51:34;;;;;;;7.88;3.53;;;;;;;9.19;100.00;102380.06;6083271;19;20291;-75
2023/11/23 04:53:44;;;;;;;13.43;4.13;;;;;;;9.25;100.00;102379.13;6080702;19;20082;-75
2023/11/23 04:55:54;;;;;;;13.77;4.57;;;;;;;9.22;100.00;102377.41;6083124;19;20041;-75
2023/11/23 04:58:04;;;;;;;16.70;4.75;;;;;;;9.21;100.00;102370.41;6083628;19;20036;-76
2023/11/23 05:00:16;;;;;;;12.63;4.22;;;;;;;9.21;100.00;102373.00;6084947;19;20576;-74
2023/11/23 05:02:29;;;;;;;14.05;4.65;;;;;;;9.21;100.00;102374.78;6085062;19;20485;-74
2023/11/23 05:04:39;;;;;;;13.57;3.78;;;;;;;9.18;100.00;102375.69;6084999;19;20010;-74
2023/11/23 05:06:44;;;;;;;10.38;4.47;;;;;;;9.20;100.00;102376.53;6083675;19;20033;-75
2023/11/23 05:08:49;;;;;;;11.38;4.30;;;;;;;9.14;100.00;102379.22;6077856;19;20003;-73
2023/11/23 05:10:59;;;;;;;12.75;3.83;;;;;;;9.13;100.00;102372.22;6083185;19;20489;-75
2023/11/23 05:13:10;;;;;;;11.40;3.75;;;;;;;9.12;100.00;102367.00;6086513;19;20036;-75
2023/11/23 05:15:21;;;;;;;11.27;3.35;;;;;;;9.15;100.00;102366.97;6085959;19;20150;-71
2023/11/23 05:17:36;;;;;;;10.48;3.97;;;;;;;9.13;100.00;102366.97;6084331;19;20014;-76
2023/11/23 05:19:46;;;;;;;11.80;4.22;;;;;;;9.11;100.00;102358.28;6085409;19;20030;-72
2023/11/23 05:21:56;;;;;;;5.68;3.30;;;;;;;9.12;100.00;102360.00;6083493;19;20019;-71
2023/11/23 05:24:01;;;;;;;7.63;3.20;;;;;;;9.11;100.00;102357.38;6084264;19;20015;-72
2023/11/23 05:26:09;;;;;;;13.43;3.92;;;;;;;9.12;100.00;102357.38;6083836;19;20011;-72
2023/11/23 05:28:19;;;;;;;12.93;4.35;;;;;;;9.17;100.00;102352.97;6081414;19;20042;-75
2023/11/23 05:30:32;;;;;;;9.05;3.00;;;;;;;9.20;100.00;102349.44;6082364;19;20029;-75
2023/11/23 05:32:45;;;;;;;11.73;4.18;;;;;;;9.21;100.00;102344.16;6082246;19;20031;-75
2023/11/23 05:34:57;;;;;;;9.57;3.50;;;;;;;9.18;100.00;102343.34;6079975;19;20535;-74
2023/11/23 05:37:07;;;;;;;10.25;3.78;;;;;;;9.21;100.00;102345.91;6082368;19;20106;-75
2023/11/23 05:39:17;;;;;;;8.25;3.17;;;;;;;9.25;100.00;102352.88;6082132;19;20025;-74
2023/11/23 05:41:27;;;;;;;10.20;3.35;;;;;;;9.35;100.00;102345.78;6084625;19;20452;-76
2023/11/23 05:43:35;;;;;;;9.40;3.85;;;;;;;9.42;100.00;102347.44;6082413;19;20021;-73
2023/11/23 05:45:37;;;;;;;11.93;3.63;;;;;;;9.40;100.00;102343.97;6084511;19;20030;-73
2023/11/23 05:47:45;;;;;;;14.00;4.40;;;;;;;9.35;100.00;102337.94;6079725;19;20018;-70
2023/11/23 05:50:01;;;;;;;15.45;4.07;;;;;;;9.28;100.00;102344.97;6081871;19;20038;-73
2023/11/23 05:52:12;;;;;;;9.65;3.45;;;;;;;9.28;100.00;102336.25;6081315;19;20473;-73
2023/11/23 05:54:18;;;;;;;16.42;4.07;;;;;;;9.29;100.00;102330.09;6082766;19;20414;-73
2023/11/23 05:56:24;;;;;;;11.00;4.13;;;;;;;9.23;100.00;102328.41;6079228;19;20006;-73
2023/11/23 05:58:29;;;;;;;15.35;3.97;;;;;;;9.20;100.00;102326.69;6084920;19;20605;-73
2023/11/23 06:00:34;;;;;;;11.43;3.65;;;;;;;9.22;100.00;102322.31;6088003;19;20046;-73
2023/11/23 06:02:41;;;;;;;15.50;3.95;;;;;;;9.24;100.00;102322.28;6088840;19;20006;-69
2023/11/23 06:04:49;;;;;;;9.73;3.70;;;;;;;9.22;100.00;102324.94;6089035;19;20410;-69
2023/11/23 06:06:59;;;;;;;6.35;3.22;;;;;;;9.14;100.00;102326.78;6086866;19;20501;-72
2023/11/23 06:09:09;;;;;;;11.02;4.18;;;;;;;9.19;100.00;102330.22;6089652;19;20351;-75
2023/11/23 06:11:14;;;;;;;13.50;4.35;;;;;;;9.15;100.00;102328.50;6087506;19;20014;-73
2023/11/23 06:13:19;;;;;;;9.52;3.47;;;;;;;9.19;100.00;102330.22;6086553;19;20074;-70
2023/11/23 06:15:25;;;;;;;9.10;3.17;;;;;;;9.12;100.00;102323.28;6086390;19;20007;-72
2023/11/23 06:17:31;;;;;;;16.73;3.72;;;;;;;9.16;100.00;102325.00;6084429;19;20082;-71
2023/11/23 06:19:36;;;;;;;6.40;3.17;;;;;;;9.23;100.00;102331.91;6083269;19;20033;-70
2023/11/23 06:21:45;;;;;;;9.43;3.47;;;;;;;9.20;100.00;102331.09;6088576;19;20006;-71
2023/11/23 06:23:55;;;;;;;7.63;3.17;;;;;;;9.17;100.00;102321.50;6085272;19;20017;-71
2023/11/23 06:26:05;;;;;;;6.68;3.10;;;;;;;9.17;100.00;102326.75;6087882;19;20531;-72
2023/11/23 06:28:10;;;;;;;7.72;3.33;;;;;;;9.20;100.00;102318.84;6086132;19;20108;-71
2023/11/23 06:30:20;;;;;;;10.40;3.83;;;;;;;9.25;100.00;102320.53;6085306;19;20358;-70
2023/11/23 06:32:30;;;;;;;10.90;3.42;;;;;;;9.20;100.00;102310.97;6086102;19;20031;-70
2023/11/23 06:34:40;;;;;;;10.55;3.40;;;;;;;9.13;100.00;102317.16;6090069;19;20102;-74
2023/11/23 06:36:53;;;;;;;10.90;3.25;;;;;;;9.20;100.00;102307.47;6086862;19;20019;-70
2023/11/23 06:39:02;;;;;;;13.77;3.10;;;;;;;9.20;100.00;102310.09;6084751;19;20037;-70
2023/11/23 06:41:08;;;;;;;10.52;3.63;;;;;;;9.13;100.00;102301.41;6087508;19;20037;-70
2023/11/23 06:43:13;;;;;;;9.82;3.20;;;;;;;9.16;100.00;102308.38;6087903;19;20003;-70
2023/11/23 06:45:18;;;;;;;21.00;4.20;;;;;;;9.13;100.00;102303.19;6085450;19;20019;-70
2023/11/23 06:47:23;;;;;;;9.55;3.70;;;;;;;9.14;100.00;102305.78;6084395;19;20020;-70
2023/11/23 06:49:29;;;;;;;10.43;2.85;;;;;;;9.14;100.00;102312.81;6086981;19;20021;-70
2023/11/23 06:51:40;;;;;;;7.60;3.33;;;;;;;9.09;100.00;102318.09;6085191;19;20102;-71
2023/11/23 06:53:47;;;;;;;17.30;4.10;;;;;;;9.10;100.00;102316.31;6085268;19;20015;-74
2023/11/23 06:55:49;;;;;;;10.02;3.83;;;;;;;9.15;100.00;102318.00;6085588;19;20003;-74
2023/11/23 06:57:54;;;;;;;9.38;3.05;;;;;;;9.17;100.00;102305.75;6084112;19;20666;-70
2023/11/23 07:00:10;;;;;;;5.63;3.20;;;;;;;9.14;100.00;102305.78;6083250;19;20394;-73
2023/11/23 07:02:15;;;;;;;14.68;3.78;;;;;;;9.17;100.00;102308.38;6085365;19;20018;-74
2023/11/23 07:04:23;;;;;;;10.35;3.58;;;;;;;9.20;100.00;102305.72;6087174;19;20048;-74
2023/11/23 07:06:33;;;;;;;9.50;3.55;;;;;;;9.22;100.00;102308.34;6086774;19;20022;-74
2023/11/23 07:08:45;;;;;;;10.55;3.38;;;;;;;9.25;100.00;102302.19;6084960;19;20806;-70
2023/11/23 07:10:57;;;;;;;7.05;3.72;;;;;;;9.26;100.00;102301.28;6084568;19;20017;-74
2023/11/23 07:13:02;;;;;;;14.88;3.55;;;;;;;9.19;100.00;102293.50;6084872;19;20014;-71
2023/11/23 07:15:14;;;;;;;6.40;3.00;;;;;;;9.18;100.00;102297.00;6082559;19;20033;-73
2023/11/23 07:17:24;;;;;;;11.63;4.15;;;;;;;9.11;100.00;102297.97;6088352;19;20026;-71
2023/11/23 07:19:37;;;;;;;9.68;3.17;;;;;;;9.12;100.00;102304.94;6080443;19;20025;-71
2023/11/23 07:21:47;;;;;;;11.77;3.38;;;;;;;9.15;100.00;102314.53;6085631;19;20045;-74
2023/11/23 07:23:52;;;;;;;14.98;3.60;;;;;;;9.18;100.00;102319.72;6082467;19;20057;-75
2023/11/23 07:26:05;;;;;;;11.35;3.22;;;;;;;9.10;100.00;102321.56;6090591;19;20017;-70
2023/11/23 07:28:14;;;;;;;6.82;3.22;;;;;;;9.19;100.00;102331.97;6089412;19;19998;-74
2023/11/23 07:30:20;;;;;;;18.80;3.78;;;;;;;9.14;100.00;102318.03;6091814;19;20015;-74
2023/11/23 07:32:30;;;;;;;10.70;3.67;;;;;;;9.10;100.00;102324.19;6083587;19;20030;-71
2023/11/23 07:34:40;;;;;;;8.98;3.33;;;;;;;9.11;100.00;102326.81;6085799;19;20009;-76
2023/11/23 07:36:50;;;;;;;11.75;3.20;;;;;;;9.09;100.00;102328.56;6087039;19;20098;-74
2023/11/23 07:38:55;;;;;;;13.90;3.53;;;;;;;9.15;100.00;102325.00;6088005;19;20027;-75
2023/11/23 07:41:00;;;;;;;13.90;3.50;;;;;;;9.11;100.00;102318.94;6087014;19;20029;-70
2023/11/23 07:43:10;;;;;;;11.20;3.92;;;;;;;9.08;100.00;102326.81;6087077;19;20122;-75
2023/11/23 07:45:19;;;;;;;11.57;3.78;;;;;;;9.15;100.00;102320.63;6083116;19;20019;-74
2023/11/23 07:47:25;;;;;;;12.48;3.78;;;;;;;9.18;100.00;102311.88;6089183;19;20010;-75
2023/11/23 07:49:37;;;;;;;14.50;3.63;;;;;;;9.14;100.00;102315.44;6083391;19;20009;-74
2023/11/23 07:51:47;;;;;;;15.85;3.40;;;;;;;9.13;100.00;102306.66;6085653;19;20376;-74
2023/11/23 07:53:57;;;;;;;12.45;3.92;;;;;;;9.13;100.00;102318.91;6083571;19;20068;-76
2023/11/23 07:56:11;;;;;;;18.17;3.78;;;;;;;9.17;100.00;102320.63;6081231;19;20027;-75
2023/11/23 07:58:26;;;;;;;16.45;3.72;;;;;;;9.23;100.00;102307.44;6076635;19;20102;-74
2023/11/23 08:00:38;;;;;;;15.23;3.45;;;;;;;9.36;100.00;102302.91;6074315;19;20414;-72
2023/11/23 08:02:48;;;;;;;9.98;3.55;;;;;;;9.51;100.00;102304.50;6083783;19;20024;-75
2023/11/23 08:04:58;;;;;;;6.78;3.70;;;;;;;9.56;100.00;102303.56;6082445;19;20017;-71
2023/11/23 08:07:10;;;;;;;14.35;3.72;;;;;;;9.60;100.00;102299.13;6079678;19;20409;-71
2023/11/23 08:09:18;;;;;;;12.77;3.40;;;;;;;9.64;100.00;102299.06;6083689;19;20009;-70
2023/11/23 08:11:24;;;;;;;12.75;3.97;;;;;;;9.64;100.00;102293.81;6080435;19;20339;-75
2023/11/23 08:13:37;;;;;;;9.55;3.38;;;;;;;9.81;100.00;102292.72;5997861;19;2004651;-73
2023/11/23 08:15:42;;;;;;;17.70;3.28;;;;;;;9.89;100.00;102296.09;6081961;19;20007;-69
2023/11/23 08:17:47;;;;;;;11.63;4.05;;;;;;;9.98;100.00;102298.59;6080979;19;20362;-74
2023/11/23 08:20:07;;;;;;;7.68;3.30;;;;;;;10.14;100.00;102301.88;6080867;19;20067;-74
2023/11/23 08:22:12;;;;;;;14.20;4.13;;;;;;;10.27;100.00;102302.56;6082666;19;20381;-74
2023/11/23 08:24:22;;;;;;;9.98;3.30;;;;;;;10.41;100.00;102290.06;6082519;19;20020;-74
2023/11/23 08:26:32;;;;;;;6.32;3.00;;;;;;;10.48;100.00;102273.31;6076027;19;20479;-74
2023/11/23 08:28:44;;;;;;;17.42;3.63;;;;;;;10.54;100.00;102256.56;6071803;19;20013;-75
2023/11/23 08:30:54;;;;;;;10.68;3.67;;;;;;;10.56;100.00;102236.38;6081012;19;20015;-75
2023/11/23 08:33:05;;;;;;;12.73;3.50;;;;;;;10.51;100.00;102235.59;6083509;19;20051;-68
2023/11/23 08:35:16;;;;;;;16.58;4.35;;;;;;;10.45;100.00;102239.22;6086450;19;20103;-72
2023/11/23 08:37:21;;;;;;;5.45;3.10;;;;;;;10.49;100.00;102240.88;6086980;19;20014;-74
2023/11/23 08:39:27;;;;;;;7.60;2.58;;;;;;;10.53;100.00;102250.44;6084983;19;20014;-76
2023/11/23 08:41:32;;;;;;;9.20;3.65;;;;;;;10.58;100.00;102250.34;6080003;19;20046;-74
2023/11/23 08:43:38;;;;;;;15.90;3.25;;;;;;;10.61;100.00;102265.19;6079324;19;20362;-70
2023/11/23 08:45:45;;;;;;;13.38;3.28;;;;;;;10.67;100.00;102265.09;6076518;19;20023;-71
2023/11/23 08:47:55;;;;;;;6.90;3.00;;;;;;;10.64;100.00;102259.91;6079266;19;20322;-70
2023/11/23 08:50:05;;;;;;;13.45;3.58;;;;;;;10.67;100.00;102249.34;6082169;19;20151;-70
2023/11/23 08:52:17;;;;;;;11.80;3.42;;;;;;;10.80;100.00;102242.94;6082813;19;20013;-70
2023/11/23 08:54:22;;;;;;;8.60;3.00;;;;;;;10.81;100.00;102243.81;6082038;19;20090;-71
2023/11/23 08:56:27;;;;;;;6.97;3.05;;;;;;;10.86;100.00;102242.81;6084889;19;20002;-74
2023/11/23 08:58:37;;;;;;;8.63;3.63;;;;;;;10.94;100.00;102250.56;6085425;19;20029;-74
2023/11/23 09:00:50;;;;;;;10.18;3.63;;;;;;;10.95;100.00;102249.66;6082004;19;20017;-72
2023/11/23 09:02:57;;;;;;;16.35;3.70;;;;;;;11.01;100.00;102243.44;6077905;19;20988;-71
2023/11/23 09:05:11;;;;;;;9.93;3.22;;;;;;;11.09;100.00;102233.63;6079993;19;20754;-72
2023/11/23 09:07:16;;;;;;;17.33;3.58;;;;;;;11.16;100.00;102240.47;6078453;19;20010;-75
2023/11/23 09:09:19;;;;;;;6.75;3.10;;;;;;;11.31;100.00;102223.50;6083936;19;20007;-73
2023/11/23 09:11:26;;;;;;;16.63;3.45;;;;;;;11.34;100.00;102221.66;6083934;19;20010;-76
2023/11/23 09:13:32;;;;;;;9.65;3.42;;;;;;;11.33;100.00;102219.94;6083260;19;20717;-75
2023/11/23 09:15:37;;;;;;;8.95;2.83;;;;;;;11.37;100.00;102232.16;6080081;19;20021;-69
2023/11/23 09:17:45;;;;;;;7.18;3.20;;;;;;;11.40;100.00;102241.72;6077605;19;20484;-70
2023/11/23 09:19:50;;;;;;;7.90;2.95;;;;;;;11.45;100.00;102242.50;6081495;19;20066;-70
2023/11/23 09:21:58;;;;;;;7.35;3.10;;;;;;;11.52;100.00;102243.25;6083254;19;20006;-70
2023/11/23 09:24:05;;;;;;;16.40;3.58;;;;;;;11.58;100.00;102241.31;6080878;19;20033;-70
2023/11/23 09:26:15;;;;;;;12.75;2.90;;;;;;;11.62;100.00;102234.25;6078995;19;20417;-74
2023/11/23 09:28:26;;;;;;;13.43;3.22;;;;;;;11.64;100.00;102230.69;6081753;19;20020;-74
2023/11/23 09:30:36;;;;;;;7.57;3.13;;;;;;;11.69;100.00;102222.69;6082581;19;20037;-75
2023/11/23 09:32:49;;;;;;;10.38;3.15;;;;;;;11.67;100.00;102213.09;6084199;19;20014;-74
2023/11/23 09:34:59;;;;;;;6.93;2.80;;;;;;;11.70;100.00;102219.13;6091371;19;20497;-70
2023/11/23 09:37:09;;;;;;;7.40;2.72;;;;;;;11.69;100.00;102227.94;6089248;19;20031;-70
2023/11/23 09:39:20;;;;;;;8.90;3.15;;;;;;;11.76;100.00;102226.88;6089454;19;20379;-71
2023/11/23 09:41:28;;;;;;;13.55;3.72;;;;;;;11.84;100.00;102206.50;6087774;19;20014;-70
2023/11/23 09:43:36;;;;;;;7.22;3.33;;;;;;;11.92;100.00;102208.97;6087303;19;20007;-73
2023/11/23 09:45:41;;;;;;;7.93;2.90;;;;;;;12.01;100.00;102203.50;6083591;19;20352;-73
2023/11/23 09:47:51;;;;;;;6.80;3.00;;;;;;;11.99;100.00;102199.16;6086211;19;20015;-73
2023/11/23 09:50:03;;;;;;;8.27;2.72;;;;;;;12.04;100.00;102181.47;6085404;19;20033;-71
2023/11/23 09:52:09;;;;;;;15.30;3.03;;;;;;;12.16;100.00;102175.88;6087218;19;20010;-74
2023/11/23 09:54:21;;;;;;;11.57;3.38;;;;;;;12.28;100.00;102169.44;6080425;19;20010;-74
2023/11/23 09:56:31;;;;;;;11.05;3.38;;;;;;;12.31;100.00;102169.34;6089150;19;20306;-73
2023/11/23 09:58:37;;;;;;;6.55;3.10;;;;;;;12.24;100.00;102180.94;6085021;19;20385;-70
2023/11/23 10:00:42;;;;;;;11.50;3.53;;;;;;;12.17;100.00;102180.25;6090327;19;20009;-70
2023/11/23 10:02:58;;;;;;;11.73;2.80;;;;;;;12.16;100.00;102194.31;6087926;19;20026;-73
2023/11/23 10:05:10;;;;;;;5.32;2.30;;;;;;;12.15;100.00;102191.75;6087194;19;20034;-73
2023/11/23 10:07:22;;;;;;;12.80;3.25;;;;;;;12.11;100.00;102197.97;6084254;19;20106;-74
2023/11/23 10:09:27;;;;;;;9.52;3.15;;;;;;;12.13;100.00;102196.19;6085828;19;20034;-71